Time;durP1;ratioP1;P1;durP2;ratioP2;P2;SDS_P1;SDS_P2;PMS_P1;PMS_P2;Temp;Humidity;BMP_temperature;BMP_pressure;BME280_temperature;BME280_humidity;BME280_pressure;Samples;Min_cycle;Max_cycle;Signal;HPM_P1;HPM_P2
2023/03/30 00:00:58;;;;;;;8.95;4.00;;;9.70;99.90;;;;;;4972014;28;20039;-76
2023/03/30 00:03:26;;;;;;;8.52;2.85;;;9.80;99.90;;;;;;4982239;28;20073;-76
2023/03/30 00:05:55;;;;;;;5.13;3.40;;;9.70;99.90;;;;;;4983035;28;20058;-76
2023/03/30 00:08:27;;;;;;;8.07;2.83;;;9.80;99.90;;;;;;4981833;28;20620;-77
2023/03/30 00:10:59;;;;;;;4.78;2.10;;;9.80;99.90;;;;;;4976686;28;20035;-76
2023/03/30 00:13:25;;;;;;;6.78;2.38;;;9.80;99.90;;;;;;4976103;28;20117;-77
2023/03/30 00:15:51;;;;;;;6.00;1.95;;;9.90;99.90;;;;;;4976821;28;20047;-76
2023/03/30 00:18:16;;;;;;;10.05;2.72;;;9.90;99.90;;;;;;4982208;28;20053;-76
2023/03/30 00:20:43;;;;;;;12.35;3.80;;;9.90;99.90;;;;;;4988612;28;20657;-76
2023/03/30 00:23:09;;;;;;;7.13;2.47;;;10.00;99.90;;;;;;4983407;28;20066;-76
2023/03/30 00:25:36;;;;;;;8.85;3.00;;;10.00;99.90;;;;;;4982616;28;20047;-76
2023/03/30 00:28:02;;;;;;;6.20;2.00;;;10.10;99.90;;;;;;4980202;28;20544;-79
2023/03/30 00:30:27;;;;;;;4.07;2.17;;;10.20;99.90;;;;;;4977208;28;20033;-81
2023/03/30 00:32:53;;;;;;;19.73;7.63;;;10.20;99.90;;;;;;4977374;28;20039;-75
2023/03/30 00:35:19;;;;;;;5.43;2.63;;;10.30;99.90;;;;;;4980770;28;20039;-78
2023/03/30 00:37:48;;;;;;;8.10;1.60;;;10.50;99.90;;;;;;4992095;28;20034;-76
2023/03/30 00:40:17;;;;;;;4.82;2.03;;;10.60;99.90;;;;;;4983086;28;20031;-76
2023/03/30 00:42:43;;;;;;;4.90;1.88;;;10.50;99.90;;;;;;4982952;28;20041;-77
2023/03/30 00:45:20;;;;;;;7.32;2.60;;;10.40;99.90;;;;;;4978328;28;20893;-76
2023/03/30 00:48:03;;;;;;;7.88;2.00;;;10.40;99.90;;;;;;4987577;28;20042;-77
2023/03/30 00:50:37;;;;;;;7.65;1.70;;;10.50;99.90;;;;;;4988801;28;20026;-76
2023/03/30 00:53:09;;;;;;;7.22;1.75;;;10.50;99.90;;;;;;4983548;28;20140;-76
2023/03/30 00:55:37;;;;;;;2.47;1.40;;;10.70;99.90;;;;;;4984202;28;20035;-76
2023/03/30 00:58:04;;;;;;;8.05;1.67;;;10.70;99.90;;;;;;4987261;28;20045;-77
2023/03/30 01:00:29;;;;;;;6.28;1.77;;;10.70;99.90;;;;;;4980826;28;20038;-79
2023/03/30 01:03:03;;;;;;;5.22;2.05;;;10.80;99.90;;;;;;4985437;28;20035;-78
2023/03/30 01:05:29;;;;;;;5.20;1.90;;;10.90;99.90;;;;;;4995412;28;20050;-78
2023/03/30 01:07:56;;;;;;;8.82;2.03;;;10.90;99.90;;;;;;4987492;28;20481;-78
2023/03/30 01:10:22;;;;;;;4.85;1.73;;;10.90;99.90;;;;;;4978600;28;20044;-78
2023/03/30 01:12:48;;;;;;;6.45;1.67;;;10.90;99.90;;;;;;4977577;28;20042;-80
2023/03/30 01:15:15;;;;;;;7.38;1.92;;;10.90;99.90;;;;;;4983162;28;20031;-77
2023/03/30 01:18:11;;;;;;;6.53;1.70;;;11.00;99.90;;;;;;4986856;28;20023;-78
2023/03/30 01:20:49;;;;;;;9.17;2.20;;;11.10;99.90;;;;;;4984045;28;20023;-78
2023/03/30 01:23:52;;;;;;;8.10;1.98;;;11.20;99.90;;;;;;4986863;28;20055;-78
2023/03/30 01:26:40;;;;;;;6.75;2.17;;;11.20;99.90;;;;;;4985447;28;20091;-78
2023/03/30 01:29:36;;;;;;;6.88;1.80;;;11.30;99.90;;;;;;4989107;28;20065;-79
2023/03/30 01:32:21;;;;;;;5.15;2.13;;;11.30;99.90;;;;;;4981067;28;20084;-78
2023/03/30 01:34:52;;;;;;;5.28;1.65;;;11.30;99.90;;;;;;4995602;28;20042;-78
2023/03/30 01:37:41;;;;;;;5.20;1.80;;;11.30;99.90;;;;;;4986445;28;20093;-78
2023/03/30 01:40:17;;;;;;;2.97;2.00;;;11.30;99.90;;;;;;4985711;28;20549;-78
2023/03/30 01:42:43;;;;;;;4.90;1.73;;;11.40;99.90;;;;;;4988691;28;20027;-78
2023/03/30 01:45:50;;;;;;;4.88;1.67;;;11.30;99.90;;;;;;4986607;28;20092;-79
2023/03/30 01:48:46;;;;;;;4.30;1.30;;;11.40;99.90;;;;;;4986141;28;20035;-78
2023/03/30 01:51:22;;;;;;;5.38;1.77;;;11.80;99.90;;;;;;4986650;28;20042;-78
2023/03/30 01:54:02;;;;;;;7.25;1.88;;;12.10;99.90;;;;;;4989399;28;20037;-78
2023/03/30 01:56:31;;;;;;;8.48;2.03;;;12.20;99.90;;;;;;4978119;28;20023;-78
2023/03/30 01:59:06;;;;;;;2.17;1.08;;;12.10;99.90;;;;;;4990062;28;20034;-78
2023/03/30 02:01:35;;;;;;;5.93;1.70;;;12.20;99.90;;;;;;4986801;28;20062;-78
2023/03/30 02:04:03;;;;;;;5.00;1.60;;;12.10;99.90;;;;;;4992919;28;20034;-78
2023/03/30 02:06:38;;;;;;;;;;;12.10;99.90;;;;;;4979873;28;20165;-78
2023/03/30 02:09:07;;;;;;;6.93;1.90;;;12.00;99.90;;;;;;4994803;28;19989;-79
2023/03/30 02:11:35;;;;;;;3.53;1.48;;;11.90;99.90;;;;;;4985405;28;20054;-78
2023/03/30 02:14:04;;;;;;;6.18;1.73;;;11.80;99.90;;;;;;4993897;28;20035;-78
2023/03/30 02:16:36;;;;;;;5.10;1.90;;;11.70;99.90;;;;;;4986687;28;20114;-78
2023/03/30 02:19:05;;;;;;;4.75;1.63;;;11.60;99.90;;;;;;4991469;28;20057;-78
2023/03/30 02:21:31;;;;;;;9.80;2.60;;;11.60;99.90;;;;;;4986442;28;20035;-78
2023/03/30 02:23:59;;;;;;;42.63;19.92;;;11.60;99.90;;;;;;4988784;28;20047;-79
2023/03/30 02:26:26;;;;;;;16.17;6.47;;;11.60;99.90;;;;;;4992651;28;20027;-78
2023/03/30 02:28:52;;;;;;;417.67;230.13;;;11.60;99.90;;;;;;4991704;28;20041;-78
2023/03/30 02:31:18;;;;;;;171.18;106.47;;;11.60;99.90;;;;;;4989174;28;20038;-78
2023/03/30 02:33:53;;;;;;;68.05;55.47;;;11.50;99.90;;;;;;4995469;28;20022;-78
2023/03/30 02:36:56;;;;;;;51.75;39.95;;;11.50;99.90;;;;;;4987571;28;20114;-78
2023/03/30 02:40:12;;;;;;;25.15;22.58;;;11.40;99.90;;;;;;4992234;28;20034;-78
2023/03/30 02:42:58;;;;;;;19.67;10.10;;;11.40;99.90;;;;;;4949421;28;20050;-78
2023/03/30 02:45:48;;;;;;;18.02;12.88;;;11.40;99.90;;;;;;4978250;28;20035;-78
2023/03/30 02:48:39;;;;;;;10.57;6.40;;;11.40;99.90;;;;;;4982455;28;20026;-78
2023/03/30 02:51:11;;;;;;;7.68;2.70;;;11.30;99.90;;;;;;4987303;28;20039;-78
2023/03/30 02:54:11;;;;;;;12.30;3.95;;;11.30;99.90;;;;;;4993799;28;20509;-78
2023/03/30 02:56:46;;;;;;;9.18;2.17;;;11.20;99.90;;;;;;4996553;28;20042;-78
2023/03/30 02:59:27;;;;;;;8.23;2.53;;;11.10;99.90;;;;;;4992442;28;20081;-78
2023/03/30 03:02:10;;;;;;;12.73;2.63;;;11.10;99.90;;;;;;4994246;28;20039;-77
2023/03/30 03:04:36;;;;;;;8.40;2.65;;;11.00;99.90;;;;;;4988500;28;20050;-78
2023/03/30 03:07:02;;;;;;;10.57;3.20;;;10.90;99.90;;;;;;4987402;28;20039;-77
2023/03/30 03:09:28;;;;;;;10.23;2.88;;;10.90;99.90;;;;;;4989757;28;20030;-78
2023/03/30 03:11:54;;;;;;;8.02;2.42;;;10.90;99.90;;;;;;4992339;28;20031;-77
2023/03/30 03:14:20;;;;;;;7.50;2.30;;;10.90;99.90;;;;;;4989143;28;20025;-78
2023/03/30 03:16:46;;;;;;;3.85;1.83;;;10.90;99.90;;;;;;4986094;28;20039;-77
2023/03/30 03:19:11;;;;;;;10.77;2.00;;;10.90;99.90;;;;;;4987609;28;21053;-78
2023/03/30 03:21:37;;;;;;;6.80;2.13;;;10.90;99.90;;;;;;4984075;28;20047;-77
2023/03/30 03:24:05;;;;;;;3.85;1.95;;;10.90;99.90;;;;;;4988290;28;20059;-78
2023/03/30 03:26:30;;;;;;;8.30;1.97;;;10.90;99.90;;;;;;4984389;28;20593;-78
2023/03/30 03:28:56;;;;;;;6.70;2.00;;;10.90;99.90;;;;;;4989600;28;20070;-78
2023/03/30 03:31:23;;;;;;;8.15;2.10;;;10.90;99.90;;;;;;4992774;28;20042;-77
2023/03/30 03:33:49;;;;;;;9.02;2.30;;;10.90;99.90;;;;;;4993013;28;20106;-77
2023/03/30 03:36:15;;;;;;;8.32;2.13;;;10.80;99.90;;;;;;4996033;28;20042;-77
2023/03/30 03:38:41;;;;;;;6.38;2.80;;;10.80;99.90;;;;;;4990075;28;20035;-77
2023/03/30 03:41:07;;;;;;;4.97;1.90;;;10.80;99.90;;;;;;4986769;28;20042;-77
2023/03/30 03:43:32;;;;;;;8.75;2.63;;;10.80;99.90;;;;;;4997231;28;20026;-77
2023/03/30 03:45:58;;;;;;;9.60;2.33;;;10.80;99.90;;;;;;4991251;28;20031;-78
2023/03/30 03:48:24;;;;;;;5.30;2.00;;;10.80;99.90;;;;;;4993583;28;20030;-77
2023/03/30 03:50:52;;;;;;;5.88;2.45;;;10.80;99.90;;;;;;4987406;28;20078;-77
2023/03/30 03:53:18;;;;;;;7.43;2.00;;;10.90;99.90;;;;;;4989310;28;20033;-78
2023/03/30 03:55:45;;;;;;;9.85;2.00;;;10.90;99.90;;;;;;4981698;28;20039;-77
2023/03/30 03:58:11;;;;;;;7.38;1.73;;;10.80;99.90;;;;;;4978374;28;20039;-78
2023/03/30 04:00:37;;;;;;;5.60;2.72;;;10.90;99.90;;;;;;4987379;28;20027;-78
2023/03/30 04:03:03;;;;;;;7.90;1.98;;;11.00;99.90;;;;;;4987882;28;20098;-78
2023/03/30 04:05:29;;;;;;;5.15;2.47;;;10.90;99.90;;;;;;4983544;28;20035;-78
2023/03/30 04:07:55;;;;;;;6.68;2.20;;;10.90;99.90;;;;;;4985649;28;20027;-78
2023/03/30 04:10:22;;;;;;;3.95;1.70;;;10.90;99.90;;;;;;4983216;28;20034;-77
2023/03/30 04:12:47;;;;;;;13.63;2.67;;;11.00;99.90;;;;;;4981402;28;20049;-78
2023/03/30 04:15:13;;;;;;;5.80;1.85;;;11.00;99.90;;;;;;4997423;28;20038;-77
2023/03/30 04:17:39;;;;;;;6.50;2.22;;;11.00;99.90;;;;;;4988970;28;20034;-77
2023/03/30 04:20:11;;;;;;;7.40;1.83;;;11.00;99.90;;;;;;4989666;28;20047;-77
2023/03/30 04:22:40;;;;;;;4.57;1.75;;;10.90;99.90;;;;;;4990479;28;20073;-77
2023/03/30 04:25:10;;;;;;;11.63;2.58;;;10.90;99.90;;;;;;4982797;28;20035;-78
2023/03/30 04:27:36;;;;;;;7.40;2.10;;;11.00;99.90;;;;;;4988023;28;20049;-78
2023/03/30 04:30:05;;;;;;;6.78;1.77;;;10.90;99.90;;;;;;4981570;28;20102;-77
2023/03/30 04:32:33;;;;;;;8.52;2.47;;;11.00;99.90;;;;;;4980639;28;20046;-77
2023/03/30 04:35:04;;;;;;;5.72;1.75;;;10.90;99.90;;;;;;4985981;28;20480;-77
2023/03/30 04:37:30;;;;;;;10.20;2.85;;;11.00;99.90;;;;;;4986766;28;20517;-78
2023/03/30 04:39:57;;;;;;;6.97;1.85;;;10.90;99.90;;;;;;4985288;28;20042;-77
2023/03/30 04:42:29;;;;;;;14.38;2.60;;;11.00;99.90;;;;;;4990805;28;20038;-77
2023/03/30 04:44:56;;;;;;;10.02;2.80;;;11.00;99.90;;;;;;4983662;28;20041;-77
2023/03/30 04:47:22;;;;;;;11.52;2.10;;;11.00;99.90;;;;;;4991363;28;20022;-77
2023/03/30 04:49:48;;;;;;;9.20;2.80;;;11.00;99.90;;;;;;4988642;28;20034;-77
2023/03/30 04:52:13;;;;;;;7.13;2.03;;;11.00;99.90;;;;;;4991225;28;20037;-77
2023/03/30 04:54:39;;;;;;;5.22;2.13;;;11.00;99.90;;;;;;4991216;28;20039;-77
2023/03/30 04:57:04;;;;;;;16.40;3.50;;;11.00;99.90;;;;;;4988961;28;20031;-77
2023/03/30 04:59:30;;;;;;;9.38;2.40;;;11.00;99.90;;;;;;4986853;28;20046;-77
2023/03/30 05:01:55;;;;;;;11.35;2.45;;;11.00;99.90;;;;;;4980078;28;20054;-77
2023/03/30 05:04:21;;;;;;;7.75;2.38;;;11.00;99.90;;;;;;4988041;28;20034;-77
2023/03/30 05:06:48;;;;;;;6.40;2.40;;;11.10;99.90;;;;;;4988746;28;20038;-77
2023/03/30 05:09:15;;;;;;;5.57;2.30;;;11.10;99.90;;;;;;4992072;28;20026;-77
2023/03/30 05:11:40;;;;;;;6.13;2.10;;;11.10;99.90;;;;;;4975369;28;20031;-77
2023/03/30 05:14:06;;;;;;;9.05;2.42;;;11.00;99.90;;;;;;4986229;28;20065;-77
2023/03/30 05:16:32;;;;;;;8.32;2.28;;;11.00;99.90;;;;;;4987756;28;20161;-77
2023/03/30 05:18:57;;;;;;;9.98;2.55;;;11.10;99.90;;;;;;4986726;28;20102;-77
2023/03/30 05:21:23;;;;;;;9.70;1.90;;;11.10;99.90;;;;;;4995130;28;20070;-77
2023/03/30 05:23:49;;;;;;;7.68;1.92;;;11.10;99.90;;;;;;4986706;28;20053;-78
2023/03/30 05:26:14;;;;;;;9.82;2.70;;;11.00;99.90;;;;;;4986259;28;20035;-77
2023/03/30 05:28:41;;;;;;;10.07;2.50;;;11.00;99.90;;;;;;4986682;28;20031;-77
2023/03/30 05:31:07;;;;;;;10.68;2.35;;;10.90;99.90;;;;;;4986475;28;20034;-77
2023/03/30 05:33:33;;;;;;;9.60;2.53;;;11.00;99.90;;;;;;4990782;28;20031;-78
2023/03/30 05:35:59;;;;;;;7.57;2.30;;;11.00;99.90;;;;;;4985917;28;20141;-77
2023/03/30 05:38:25;;;;;;;8.45;2.22;;;11.00;99.90;;;;;;4987543;28;20026;-77
2023/03/30 05:40:54;;;;;;;9.82;2.50;;;10.90;99.90;;;;;;4988598;28;20038;-78
2023/03/30 05:43:19;;;;;;;8.52;2.90;;;11.00;99.90;;;;;;4986197;28;20037;-77
2023/03/30 05:45:45;;;;;;;5.00;2.40;;;11.00;99.90;;;;;;4987268;28;20042;-77
2023/03/30 05:48:11;;;;;;;8.70;2.83;;;10.90;99.90;;;;;;4988799;28;20034;-77
2023/03/30 05:50:37;;;;;;;5.70;2.15;;;10.90;99.90;;;;;;4984337;28;20098;-77
2023/03/30 05:53:02;;;;;;;6.70;2.55;;;11.00;99.90;;;;;;4989834;28;20499;-77
2023/03/30 05:55:28;;;;;;;12.95;2.83;;;11.00;99.90;;;;;;4991273;28;20042;-77
2023/03/30 05:57:53;;;;;;;8.13;2.33;;;11.00;99.90;;;;;;4987821;28;20039;-77
2023/03/30 06:00:22;;;;;;;7.07;2.10;;;11.00;99.90;;;;;;4998133;28;20041;-78
2023/03/30 06:02:48;;;;;;;10.40;2.72;;;11.00;99.90;;;;;;4992394;28;20043;-77
2023/03/30 06:05:14;;;;;;;8.70;2.10;;;11.10;99.90;;;;;;4996049;28;20037;-78
2023/03/30 06:07:39;;;;;;;7.75;2.28;;;11.00;99.90;;;;;;4987968;28;20042;-78
2023/03/30 06:10:06;;;;;;;7.85;2.20;;;11.00;99.90;;;;;;4993187;28;20039;-77
2023/03/30 06:12:32;;;;;;;6.05;2.33;;;11.00;99.90;;;;;;4992596;28;20045;-77
2023/03/30 06:15:01;;;;;;;8.77;2.53;;;11.00;99.90;;;;;;4989323;28;20073;-77
2023/03/30 06:17:27;;;;;;;8.48;2.28;;;11.10;99.90;;;;;;4991915;28;20069;-77
2023/03/30 06:19:53;;;;;;;9.98;2.35;;;11.10;99.90;;;;;;4983183;28;20039;-77
2023/03/30 06:22:20;;;;;;;6.85;1.95;;;11.10;99.90;;;;;;4997235;28;20048;-77
2023/03/30 06:24:46;;;;;;;7.18;2.00;;;11.10;99.90;;;;;;4997890;28;20047;-77
2023/03/30 06:27:11;;;;;;;10.40;2.40;;;11.10;99.90;;;;;;4990425;28;20077;-77
2023/03/30 06:29:37;;;;;;;11.40;2.55;;;11.10;99.90;;;;;;4990580;28;20522;-77
2023/03/30 06:32:03;;;;;;;7.10;2.50;;;11.10;99.90;;;;;;4993290;28;20050;-78
2023/03/30 06:34:29;;;;;;;4.75;2.50;;;11.20;99.90;;;;;;4991524;28;20042;-77
2023/03/30 06:36:55;;;;;;;7.35;1.98;;;11.20;99.90;;;;;;4987943;28;20039;-77
2023/03/30 06:39:21;;;;;;;6.30;2.30;;;11.20;99.90;;;;;;4989112;28;20054;-77
2023/03/30 06:41:46;;;;;;;8.65;2.50;;;11.20;99.90;;;;;;4988295;28;20051;-77
2023/03/30 06:44:13;;;;;;;4.38;2.63;;;11.20;99.90;;;;;;4994030;28;20374;-77
2023/03/30 06:46:39;;;;;;;6.05;2.17;;;11.20;99.90;;;;;;4988943;28;20046;-77
2023/03/30 06:49:06;;;;;;;5.00;1.92;;;11.20;99.90;;;;;;4997036;28;20034;-77
2023/03/30 06:51:34;;;;;;;3.95;1.88;;;11.30;99.90;;;;;;4991703;28;20093;-78
2023/03/30 06:54:00;;;;;;;5.82;2.22;;;11.40;99.90;;;;;;4997669;28;20034;-78
2023/03/30 06:56:26;;;;;;;9.80;3.22;;;11.40;99.90;;;;;;4993627;28;20039;-79
2023/03/30 06:58:51;;;;;;;6.38;2.03;;;11.40;99.90;;;;;;4996908;28;20089;-79
2023/03/30 07:01:17;;;;;;;10.35;2.47;;;11.40;99.90;;;;;;4982471;28;20043;-79
2023/03/30 07:03:43;;;;;;;6.93;2.08;;;11.40;99.90;;;;;;4996968;28;20038;-77
2023/03/30 07:06:09;;;;;;;10.52;2.80;;;11.40;99.90;;;;;;4986614;28;20087;-77
2023/03/30 07:08:35;;;;;;;11.25;2.47;;;11.50;99.90;;;;;;4999851;28;20045;-77
2023/03/30 07:11:05;;;;;;;7.45;2.03;;;11.40;99.90;;;;;;4990633;28;20043;-77
2023/03/30 07:13:31;;;;;;;9.45;3.33;;;11.40;99.90;;;;;;4985324;28;20042;-77
2023/03/30 07:15:57;;;;;;;11.18;2.70;;;11.40;99.90;;;;;;4996044;28;20034;-77
2023/03/30 07:18:23;;;;;;;5.68;2.17;;;11.50;99.90;;;;;;4988209;28;20049;-77
2023/03/30 07:20:50;;;;;;;8.50;2.70;;;11.50;99.90;;;;;;5006120;28;20038;-78
2023/03/30 07:23:16;;;;;;;9.32;2.58;;;11.50;99.90;;;;;;4993922;28;20072;-78
2023/03/30 07:25:43;;;;;;;6.47;2.10;;;11.50;99.90;;;;;;4983204;28;20044;-77
2023/03/30 07:28:09;;;;;;;5.15;1.95;;;11.60;99.90;;;;;;4988696;28;20061;-77
2023/03/30 07:30:35;;;;;;;7.13;2.00;;;11.60;99.90;;;;;;4988767;28;20026;-78
2023/03/30 07:33:01;;;;;;;6.40;1.60;;;11.60;99.90;;;;;;4998691;28;20058;-78
2023/03/30 07:35:27;;;;;;;4.45;2.47;;;11.60;99.90;;;;;;4979003;28;20035;-76
2023/03/30 07:37:53;;;;;;;8.35;2.10;;;11.60;99.90;;;;;;4996079;28;20038;-77
2023/03/30 07:40:20;;;;;;;7.68;2.70;;;11.70;99.90;;;;;;4988865;28;20039;-77
2023/03/30 07:42:46;;;;;;;13.38;3.38;;;11.70;99.90;;;;;;4992491;28;20051;-77
2023/03/30 07:45:12;;;;;;;9.40;2.50;;;11.80;99.90;;;;;;4984854;28;20046;-77
2023/03/30 07:47:38;;;;;;;9.65;2.15;;;11.90;99.90;;;;;;4988589;28;20041;-77
2023/03/30 07:50:05;;;;;;;6.75;2.30;;;11.90;99.90;;;;;;4991978;28;20006;-77
2023/03/30 07:52:31;;;;;;;6.63;2.30;;;11.90;99.90;;;;;;4988390;28;20041;-77
2023/03/30 07:54:57;;;;;;;8.18;2.38;;;12.00;99.90;;;;;;4997594;28;20050;-77
2023/03/30 07:57:23;;;;;;;10.80;2.03;;;12.00;99.90;;;;;;4980318;28;20030;-77
2023/03/30 07:59:48;;;;;;;5.60;2.35;;;12.00;99.90;;;;;;4995875;28;20050;-78
2023/03/30 08:02:14;;;;;;;6.40;1.92;;;12.10;99.90;;;;;;4990865;28;20042;-77
2023/03/30 08:04:40;;;;;;;7.10;2.13;;;12.10;99.90;;;;;;4989333;28;20050;-77
2023/03/30 08:07:07;;;;;;;9.25;2.17;;;12.10;99.90;;;;;;4989670;28;20039;-77
2023/03/30 08:09:34;;;;;;;7.68;2.38;;;12.10;99.90;;;;;;4993915;28;20037;-77
2023/03/30 08:12:00;;;;;;;2.78;1.55;;;12.10;99.90;;;;;;4987868;28;20043;-77
2023/03/30 08:14:26;;;;;;;6.10;1.80;;;12.10;99.90;;;;;;4993664;28;20043;-77
2023/03/30 08:16:55;;;;;;;7.35;2.10;;;12.10;99.90;;;;;;4984473;28;20461;-77
2023/03/30 08:19:23;;;;;;;11.77;2.17;;;12.00;99.90;;;;;;4988350;28;20023;-77
2023/03/30 08:21:49;;;;;;;11.00;2.28;;;12.00;99.90;;;;;;4977960;28;20102;-78
2023/03/30 08:24:15;;;;;;;13.63;2.53;;;12.10;99.90;;;;;;4986170;28;20393;-77
2023/03/30 08:26:41;;;;;;;6.68;2.08;;;12.10;99.90;;;;;;4994797;28;20035;-78
2023/03/30 08:29:07;;;;;;;9.80;2.10;;;12.20;99.90;;;;;;4987505;28;20037;-77
2023/03/30 08:31:33;;;;;;;9.25;2.10;;;12.10;99.90;;;;;;4986393;28;20072;-78
2023/03/30 08:33:59;;;;;;;5.32;2.40;;;12.20;99.90;;;;;;4991549;28;20042;-78
2023/03/30 08:36:24;;;;;;;7.65;1.85;;;12.20;99.90;;;;;;4989590;28;20043;-78
2023/03/30 08:38:50;;;;;;;9.80;2.33;;;12.30;99.90;;;;;;4987689;28;20026;-78
2023/03/30 08:41:28;;;;;;;5.55;1.73;;;12.40;99.90;;;;;;4979279;28;20034;-78
2023/03/30 08:44:01;;;;;;;7.90;2.30;;;12.30;99.90;;;;;;4998804;28;20033;-79
2023/03/30 08:46:29;;;;;;;6.88;2.20;;;12.40;99.90;;;;;;4987266;28;20035;-79
2023/03/30 08:48:59;;;;;;;9.48;2.70;;;12.40;99.90;;;;;;4982828;28;20072;-79
2023/03/30 08:51:30;;;;;;;9.65;2.22;;;12.50;99.90;;;;;;4986786;28;20046;-79
2023/03/30 08:54:00;;;;;;;11.73;2.97;;;12.50;99.90;;;;;;4987549;28;20030;-79
2023/03/30 08:56:28;;;;;;;9.15;3.47;;;12.70;99.90;;;;;;4983828;28;20035;-79
2023/03/30 08:59:12;;;;;;;5.03;2.58;;;12.70;99.90;;;;;;4987308;28;20022;-79
2023/03/30 09:01:59;;;;;;;7.80;2.75;;;12.80;99.90;;;;;;4992530;28;20047;-79
2023/03/30 09:04:43;;;;;;;5.28;1.90;;;12.90;99.90;;;;;;4986437;28;20027;-79
2023/03/30 09:07:16;;;;;;;9.75;2.45;;;12.80;99.90;;;;;;4986775;28;20260;-80
2023/03/30 09:09:45;;;;;;;5.25;2.10;;;12.90;99.90;;;;;;4991955;28;20125;-78
2023/03/30 09:12:36;;;;;;;3.95;2.13;;;12.90;99.90;;;;;;4989735;28;20019;-80
2023/03/30 09:15:21;;;;;;;5.30;1.95;;;12.90;99.90;;;;;;4979917;28;20073;-79
2023/03/30 09:18:00;;;;;;;6.30;2.30;;;12.90;99.90;;;;;;4992448;28;20048;-79
2023/03/30 09:20:28;;;;;;;6.70;2.53;;;12.90;99.90;;;;;;4985955;28;20035;-79
2023/03/30 09:22:57;;;;;;;8.27;2.63;;;13.00;99.90;;;;;;4988683;28;20050;-79
2023/03/30 09:25:27;;;;;;;8.32;1.90;;;13.00;99.90;;;;;;4996429;28;20035;-79
2023/03/30 09:28:05;;;;;;;6.45;2.00;;;13.00;99.90;;;;;;4990781;28;20114;-80
2023/03/30 09:30:44;;;;;;;5.95;3.17;;;12.90;99.90;;;;;;4991922;28;20033;-80
2023/03/30 09:33:45;;;;;;;6.90;2.38;;;13.00;99.90;;;;;;4971269;28;20036;-79
2023/03/30 09:36:38;;;;;;;5.38;1.85;;;12.90;99.90;;;;;;4903684;28;20527;-78
2023/03/30 09:39:20;;;;;;;5.78;2.40;;;13.00;99.90;;;;;;4977327;28;20122;-78
2023/03/30 09:41:45;;;;;;;6.72;2.35;;;13.00;99.90;;;;;;4961254;28;20042;-78
2023/03/30 09:44:46;;;;;;;8.95;2.92;;;13.10;99.90;;;;;;4966828;28;20204;-78
2023/03/30 09:47:23;;;;;;;7.53;2.10;;;13.00;99.90;;;;;;4968658;28;20026;-79
2023/03/30 09:49:56;;;;;;;9.25;2.20;;;13.00;99.90;;;;;;4986435;28;20049;-79
2023/03/30 09:52:25;;;;;;;5.50;2.65;;;13.00;99.90;;;;;;4974103;28;20042;-79
2023/03/30 09:54:51;;;;;;;6.55;1.98;;;12.90;99.90;;;;;;4971242;28;20067;-79
2023/03/30 09:57:31;;;;;;;7.03;2.08;;;12.80;99.90;;;;;;4968744;28;20034;-78
2023/03/30 09:59:58;;;;;;;7.85;2.17;;;12.90;99.90;;;;;;4965492;28;20035;-78
2023/03/30 10:02:26;;;;;;;3.97;1.63;;;12.80;99.90;;;;;;4986460;28;20050;-78
2023/03/30 10:04:52;;;;;;;;;;;12.80;99.90;;;;;;5000084;28;20078;-78
2023/03/30 10:07:33;;;;;;;6.30;2.03;;;12.90;99.90;;;;;;4994491;28;19909;-79
2023/03/30 10:10:11;;;;;;;6.03;1.77;;;12.90;99.90;;;;;;4994131;28;20034;-78
2023/03/30 10:12:36;;;;;;;5.75;2.45;;;12.90;99.90;;;;;;4983159;28;20034;-79
2023/03/30 10:15:03;;;;;;;5.82;2.63;;;12.90;99.90;;;;;;4995280;28;20041;-78
2023/03/30 10:17:29;;;;;;;9.60;2.20;;;13.00;99.90;;;;;;4993186;28;20030;-79
2023/03/30 10:20:16;;;;;;;6.82;2.00;;;13.00;99.90;;;;;;4995727;28;20125;-78
2023/03/30 10:22:53;;;;;;;6.25;2.72;;;13.00;99.90;;;;;;4993843;28;20076;-78
2023/03/30 10:25:26;;;;;;;3.97;1.50;;;13.00;99.90;;;;;;4984493;28;20090;-79
2023/03/30 10:27:55;;;;;;;7.60;2.17;;;13.00;99.90;;;;;;4991434;28;20034;-79
2023/03/30 10:30:24;;;;;;;11.65;2.22;;;12.90;99.90;;;;;;4983569;28;20019;-79
2023/03/30 10:32:51;;;;;;;3.90;1.48;;;12.90;99.90;;;;;;4988810;28;20093;-78
2023/03/30 10:35:26;;;;;;;7.10;2.22;;;12.80;99.90;;;;;;4987150;28;20023;-78
2023/03/30 10:37:55;;;;;;;5.55;2.47;;;12.80;99.90;;;;;;4993100;28;20050;-78
2023/03/30 10:40:36;;;;;;;6.28;2.65;;;12.80;99.90;;;;;;4999249;28;20023;-77
2023/03/30 10:43:03;;;;;;;7.85;1.95;;;12.70;99.90;;;;;;4987198;28;20022;-78
2023/03/30 10:45:38;;;;;;;10.10;2.53;;;12.60;99.90;;;;;;4990175;28;20046;-77
2023/03/30 10:48:26;;;;;;;2.08;1.48;;;12.50;99.90;;;;;;4991859;28;20027;-77
2023/03/30 10:51:33;;;;;;;8.50;3.00;;;12.40;99.90;;;;;;4990529;28;20046;-77
2023/03/30 10:54:16;;;;;;;5.17;1.73;;;12.40;99.90;;;;;;4992469;28;20043;-77
2023/03/30 10:56:53;;;;;;;9.45;3.05;;;12.40;99.90;;;;;;4989373;28;20843;-78
2023/03/30 10:59:43;;;;;;;6.60;2.47;;;12.40;99.90;;;;;;4994540;28;20114;-77
2023/03/30 11:02:48;;;;;;;7.65;2.63;;;12.40;99.90;;;;;;4982933;28;20089;-77
2023/03/30 11:05:37;;;;;;;6.75;2.72;;;12.30;99.90;;;;;;4993109;28;20386;-77
2023/03/30 11:08:06;;;;;;;5.45;2.05;;;12.20;99.90;;;;;;4993653;28;20132;-77
2023/03/30 11:10:41;;;;;;;3.47;2.58;;;12.10;99.90;;;;;;4986506;28;20031;-77
2023/03/30 11:13:11;;;;;;;3.95;2.03;;;12.00;99.90;;;;;;4985192;28;20041;-77
2023/03/30 11:15:42;;;;;;;4.50;1.85;;;11.90;99.90;;;;;;4991125;28;20027;-77
2023/03/30 11:18:24;;;;;;;4.32;2.15;;;11.80;99.90;;;;;;4988523;28;20042;-79
2023/03/30 11:21:00;;;;;;;3.30;1.65;;;11.70;99.90;;;;;;4988061;28;20041;-78
2023/03/30 11:23:44;;;;;;;3.33;1.75;;;11.60;99.90;;;;;;4991900;28;20051;-78
2023/03/30 11:26:14;;;;;;;4.70;2.58;;;11.60;99.90;;;;;;4993354;28;20034;-77
2023/03/30 11:28:59;;;;;;;9.70;2.08;;;11.50;99.90;;;;;;4988145;28;20038;-77
2023/03/30 11:31:52;;;;;;;5.22;2.10;;;11.40;99.90;;;;;;4975573;28;20047;-78
2023/03/30 11:34:52;;;;;;;6.05;2.20;;;11.40;99.90;;;;;;4990650;28;20097;-77
2023/03/30 11:37:31;;;;;;;5.82;2.17;;;11.40;99.90;;;;;;4977727;28;20046;-77
2023/03/30 11:40:17;;;;;;;4.82;1.90;;;11.30;99.90;;;;;;4992855;28;20037;-78
2023/03/30 11:42:46;;;;;;;4.28;1.92;;;11.30;99.90;;;;;;4987794;28;20035;-77
2023/03/30 11:45:33;;;;;;;;;;;11.30;99.90;;;;;;4998100;28;20053;-77
2023/03/30 11:48:13;;;;;;;4.80;2.60;;;11.30;99.90;;;;;;4991610;28;19910;-77
2023/03/30 11:50:45;;;;;;;4.97;2.70;;;11.30;99.90;;;;;;4992831;28;20037;-77
2023/03/30 11:53:48;;;;;;;6.13;3.10;;;11.30;99.90;;;;;;4993568;28;20026;-77
2023/03/30 11:56:26;;;;;;;6.30;2.20;;;11.30;99.90;;;;;;4946393;28;20054;-78
2023/03/30 11:58:55;;;;;;;;;;;11.30;99.90;;;;;;4995828;28;20058;-78
2023/03/30 12:01:40;;;;;;;2.53;1.98;;;11.30;99.90;;;;;;4986964;28;19918;-78
2023/03/30 12:04:14;;;;;;;5.07;2.55;;;11.40;99.90;;;;;;4990342;28;20031;-78
2023/03/30 12:06:47;;;;;;;3.95;2.40;;;11.40;99.90;;;;;;4989252;28;20050;-78
2023/03/30 12:09:43;;;;;;;5.28;2.50;;;11.50;99.90;;;;;;4984495;28;20825;-78
2023/03/30 12:12:17;;;;;;;4.30;2.70;;;11.70;99.90;;;;;;4989884;28;20039;-78
2023/03/30 12:14:51;;;;;;;3.90;2.30;;;11.80;99.90;;;;;;4996364;28;20038;-78
2023/03/30 12:17:25;;;;;;;5.93;2.45;;;11.80;99.90;;;;;;4989265;28;20031;-78
2023/03/30 12:20:20;;;;;;;4.88;2.33;;;11.80;99.90;;;;;;4987171;28;20044;-78
2023/03/30 12:22:58;;;;;;;2.17;2.00;;;11.80;99.90;;;;;;4948784;28;20051;-79
2023/03/30 12:25:27;;;;;;;4.80;1.90;;;12.00;99.90;;;;;;4985606;28;20058;-78
2023/03/30 12:28:09;;;;;;;2.03;1.92;;;12.10;99.90;;;;;;4985713;28;20050;-78
2023/03/30 12:30:54;;;;;;;1.75;1.58;;;12.10;99.90;;;;;;4982018;28;20015;-79
2023/03/30 12:33:45;;;;;;;3.25;1.77;;;12.20;99.90;;;;;;4985279;28;20415;-79
2023/03/30 12:36:39;;;;;;;2.33;1.60;;;12.20;99.90;;;;;;4976650;28;20120;-78
2023/03/30 12:39:32;;;;;;;1.80;1.65;;;12.30;99.90;;;;;;5002185;28;20039;-78
2023/03/30 12:42:07;;;;;;;2.85;1.80;;;12.20;99.90;;;;;;4953380;28;20055;-78
2023/03/30 12:44:46;;;;;;;2.47;1.77;;;12.10;99.90;;;;;;4989228;28;20138;-78
2023/03/30 12:47:29;;;;;;;3.80;1.52;;;12.00;99.90;;;;;;4992610;28;20050;-77
2023/03/30 12:50:28;;;;;;;2.45;1.73;;;11.90;99.90;;;;;;4989284;28;20038;-78
2023/03/30 12:53:02;;;;;;;3.28;1.73;;;11.90;99.90;;;;;;4993964;28;20042;-78
2023/03/30 12:55:42;;;;;;;2.40;1.50;;;11.80;99.90;;;;;;4981743;28;20478;-78
2023/03/30 12:58:53;;;;;;;2.42;1.60;;;11.80;99.90;;;;;;4978129;28;20039;-78
2023/03/30 13:01:31;;;;;;;4.63;1.60;;;11.80;99.90;;;;;;4981734;28;20062;-78
2023/03/30 13:04:04;;;;;;;5.15;2.05;;;11.80;99.90;;;;;;4992197;28;20062;-78
2023/03/30 13:06:36;;;;;;;4.43;2.13;;;11.80;99.90;;;;;;4985369;28;20042;-78
2023/03/30 13:09:22;;;;;;;2.40;1.50;;;11.70;99.90;;;;;;4994441;28;20814;-78
2023/03/30 13:11:48;;;;;;;2.10;1.60;;;11.70;99.90;;;;;;4984296;28;20042;-78